New Hampton, Iowa
Current Conditions -  °F | °C
As of 1:35 PM on Thursday 27 Nov 2014 (Local Time) from KCCY Reporting Station
Clear Clear  
Wind Chill: -8°   Ceiling: Unl
Heat Index:   Visibility: 10mi
Dew Point: -4°   Wind: 8mph
Humidity: 66%   Direction: 300°WNW
Pressure: 30.45"   Gusts: NA
Location:  43.06°N, 92.32°W
Report Text: KCCY 271935Z AUTO 30007KT 10SM CLR M15/M20 A3045 RMK AO2
Loading
Personal Weather Stations






























Interactive Weather Map New forecast layout! Learn more

10-Day Weather Forecast

Advertisements
Track Severe Weather on mobile